createdAt,value
2022-11-28T00:00:36.168Z,29.50
2022-11-28T00:01:58.267Z,37.03
2022-11-28T00:03:22.369Z,33.37
2022-11-28T00:04:44.741Z,32.80
2022-11-28T00:06:08.080Z,30.63
2022-11-28T00:07:30.293Z,29.30
2022-11-28T00:08:53.153Z,34.07
2022-11-28T00:10:15.215Z,28.70
2022-11-28T00:11:40.030Z,34.30
2022-11-28T00:13:02.101Z,29.43
2022-11-28T00:14:24.160Z,29.00
2022-11-28T00:15:54.373Z,37.83
2022-11-28T00:17:16.417Z,27.77
2022-11-28T00:18:38.534Z,38.70
2022-11-28T00:20:00.585Z,38.30
2022-11-28T00:21:25.089Z,34.13
2022-11-28T00:22:47.143Z,27.47
2022-11-28T00:24:09.777Z,36.23
2022-11-28T00:25:31.849Z,32.80
2022-11-28T00:26:53.960Z,35.63
2022-11-28T00:28:16.018Z,29.73
2022-11-28T00:29:39.674Z,38.83
2022-11-28T00:31:01.910Z,33.50
2022-11-28T00:32:23.980Z,45.40
2022-11-28T00:33:46.421Z,32.97
2022-11-28T00:35:08.659Z,38.60
2022-11-28T00:36:31.129Z,40.47
2022-11-28T00:37:53.149Z,40.60
2022-11-28T00:39:16.539Z,33.57
2022-11-28T00:40:38.684Z,35.93
2022-11-28T00:42:00.713Z,36.13
2022-11-28T00:43:23.004Z,38.17
2022-11-28T00:44:45.117Z,32.53
2022-11-28T00:46:08.040Z,37.63
2022-11-28T00:47:30.155Z,35.53
2022-11-28T00:48:52.629Z,32.40
2022-11-28T00:50:15.418Z,36.40
2022-11-28T00:51:38.169Z,37.17
2022-11-28T00:53:00.563Z,41.97
2022-11-28T00:54:22.601Z,41.30
2022-11-28T00:55:44.844Z,36.13
2022-11-28T00:57:06.899Z,33.50
2022-11-28T00:58:28.947Z,39.43
2022-11-28T00:59:51.033Z,38.60
2022-11-28T01:01:34.403Z,47.27
2022-11-28T01:02:56.533Z,43.33
2022-11-28T01:04:18.609Z,37.40
2022-11-28T01:05:42.115Z,39.93
2022-11-28T01:07:04.142Z,36.83
2022-11-28T01:08:26.987Z,34.33
2022-11-28T01:09:49.038Z,36.63
2022-11-28T01:11:13.084Z,36.73
2022-11-28T01:12:35.159Z,33.93
2022-11-28T01:14:00.382Z,40.43
2022-11-28T01:15:22.528Z,36.60
2022-11-28T01:16:44.766Z,34.40
2022-11-28T01:18:07.074Z,36.17
2022-11-28T01:19:29.168Z,44.77
2022-11-28T01:20:51.409Z,39.03
2022-11-28T01:22:13.456Z,37.80
2022-11-28T01:23:36.067Z,38.70
2022-11-28T01:24:58.112Z,36.77
2022-11-28T01:26:30.888Z,37.33
2022-11-28T01:27:52.958Z,45.50
2022-11-28T01:29:16.310Z,41.27
2022-11-28T01:30:38.362Z,38.77
2022-11-28T01:32:00.520Z,35.70
2022-11-28T01:33:22.645Z,39.17
2022-11-28T01:34:44.835Z,32.60
2022-11-28T01:36:07.668Z,39.97
2022-11-28T01:37:30.445Z,37.20
2022-11-28T01:38:53.997Z,41.00
2022-11-28T01:40:16.136Z,37.30
2022-11-28T01:41:39.680Z,32.07
2022-11-28T01:43:01.743Z,39.30
2022-11-28T01:44:23.740Z,42.33
2022-11-28T01:45:46.070Z,37.80
2022-11-28T01:47:08.296Z,40.07
2022-11-28T01:48:37.737Z,39.70
2022-11-28T01:50:00.689Z,39.43
2022-11-28T01:51:23.074Z,35.93
2022-11-28T01:52:49.914Z,40.83
2022-11-28T01:54:14.575Z,37.33
2022-11-28T01:55:43.699Z,40.40
2022-11-28T01:57:11.081Z,37.13
2022-11-28T01:58:36.327Z,40.73
2022-11-28T02:00:09.036Z,40.90
2022-11-28T02:01:31.328Z,36.90
2022-11-28T02:03:09.124Z,31.73
2022-11-28T02:04:31.237Z,35.97
2022-11-28T02:05:53.975Z,36.40
2022-11-28T02:07:16.146Z,39.90
2022-11-28T02:08:38.480Z,37.03
2022-11-28T02:10:02.662Z,38.37
2022-11-28T02:11:45.543Z,35.57
2022-11-28T02:13:13.285Z,30.70
2022-11-28T02:14:59.655Z,35.33
2022-11-28T02:16:30.700Z,39.40
2022-11-28T02:17:52.821Z,41.47
2022-11-28T02:19:32.583Z,29.40
2022-11-28T02:21:03.645Z,35.90
2022-11-28T02:22:37.687Z,34.70
2022-11-28T02:24:08.627Z,34.43
2022-11-28T02:25:52.110Z,33.90
2022-11-28T02:27:59.891Z,31.80
2022-11-28T02:30:02.075Z,38.17
2022-11-28T02:31:33.312Z,31.70
2022-11-28T02:33:14.477Z,34.37
2022-11-28T02:34:50.515Z,36.83
2022-11-28T02:36:19.486Z,32.73
2022-11-28T02:37:53.869Z,35.00
2022-11-28T02:39:41.341Z,36.20
2022-11-28T02:41:14.155Z,35.47
2022-11-28T02:42:57.573Z,34.90
2022-11-28T02:44:30.784Z,34.53
2022-11-28T02:46:01.937Z,26.43
2022-11-28T02:47:33.368Z,38.83
2022-11-28T02:49:00.590Z,38.17
2022-11-28T02:50:28.627Z,40.67
2022-11-28T02:52:00.132Z,30.80
2022-11-28T02:53:26.883Z,34.20
2022-11-28T02:54:50.946Z,33.23
2022-11-28T02:56:13.235Z,28.83
2022-11-28T02:57:40.376Z,31.03
2022-11-28T02:59:02.532Z,44.47
2022-11-28T03:00:34.505Z,36.67
2022-11-28T03:01:56.988Z,36.83
2022-11-28T03:03:19.036Z,34.57
2022-11-28T03:04:57.591Z,30.40
2022-11-28T03:06:27.403Z,39.93
2022-11-28T03:08:18.721Z,31.60
2022-11-28T03:09:46.649Z,36.97
2022-11-28T03:11:20.833Z,40.30
2022-11-28T03:13:01.565Z,36.33
2022-11-28T03:14:32.742Z,37.73
2022-11-28T03:16:09.876Z,33.83
2022-11-28T03:17:54.981Z,37.63
2022-11-28T03:19:16.972Z,26.50
2022-11-28T03:21:06.355Z,31.60
2022-11-28T03:23:06.020Z,35.20
2022-11-28T03:24:41.881Z,36.70
2022-11-28T03:26:22.780Z,32.03
2022-11-28T03:27:55.315Z,35.07
2022-11-28T03:29:34.618Z,33.53
2022-11-28T03:31:21.788Z,32.20
2022-11-28T03:32:47.414Z,32.07
2022-11-28T03:34:14.610Z,33.70
2022-11-28T03:35:42.845Z,30.60
2022-11-28T03:37:11.510Z,27.00
2022-11-28T03:38:41.730Z,36.13
2022-11-28T03:40:08.741Z,25.37
2022-11-28T03:41:38.691Z,32.10
2022-11-28T03:43:11.694Z,33.90
2022-11-28T03:44:53.726Z,31.27
2022-11-28T03:46:20.093Z,31.50
2022-11-28T03:47:45.870Z,34.43
2022-11-28T03:49:11.143Z,24.90
2022-11-28T03:50:45.905Z,32.00
2022-11-28T03:52:18.474Z,34.63
2022-11-28T03:54:10.774Z,27.70
2022-11-28T03:56:00.163Z,27.70
2022-11-28T03:57:31.278Z,35.43
2022-11-28T03:59:01.879Z,33.33
2022-11-28T04:00:25.124Z,22.53
2022-11-28T04:02:20.954Z,26.10
2022-11-28T04:04:09.922Z,28.70
2022-11-28T04:06:14.107Z,26.63
2022-11-28T04:07:52.460Z,30.70
2022-11-28T04:09:21.844Z,31.10
2022-11-28T04:10:45.486Z,27.17
2022-11-28T04:12:29.124Z,29.50
2022-11-28T04:14:03.424Z,27.90
2022-11-28T04:15:36.807Z,29.53
2022-11-28T04:17:10.715Z,24.60
2022-11-28T04:18:40.031Z,29.70
2022-11-28T04:20:12.438Z,29.30
2022-11-28T04:21:41.307Z,27.60
2022-11-28T04:23:10.513Z,30.50
2022-11-28T04:24:40.802Z,24.93
2022-11-28T04:26:14.008Z,24.37
2022-11-28T04:27:40.764Z,28.80
2022-11-28T04:29:10.437Z,25.80
2022-11-28T04:30:33.487Z,29.77
2022-11-28T04:31:59.523Z,28.17
2022-11-28T04:33:26.727Z,26.63
2022-11-28T04:34:53.588Z,28.30
2022-11-28T04:36:18.950Z,23.60
2022-11-28T04:37:44.114Z,26.10
2022-11-28T04:39:12.594Z,35.47
2022-11-28T04:40:47.117Z,23.77
2022-11-28T04:42:26.232Z,26.60
2022-11-28T04:43:57.317Z,28.10
2022-11-28T04:45:36.524Z,23.10
2022-11-28T04:46:59.466Z,28.90
2022-11-28T04:48:21.974Z,26.53
2022-11-28T04:49:44.397Z,27.53
2022-11-28T04:51:14.401Z,24.17
2022-11-28T04:52:39.345Z,28.80
2022-11-28T04:54:19.035Z,25.57
2022-11-28T04:55:46.111Z,22.83
2022-11-28T04:57:16.020Z,22.97
2022-11-28T04:58:42.365Z,31.10
2022-11-28T05:00:15.252Z,22.67
2022-11-28T05:01:40.301Z,25.37
2022-11-28T05:03:03.491Z,26.33
2022-11-28T05:04:25.859Z,33.10
2022-11-28T05:05:50.767Z,22.63
2022-11-28T05:07:13.405Z,28.43
2022-11-28T05:08:35.732Z,26.37
2022-11-28T05:09:57.778Z,29.57
2022-11-28T05:11:20.061Z,25.30
2022-11-28T05:12:42.892Z,28.70
2022-11-28T05:14:05.664Z,24.20
2022-11-28T05:15:27.697Z,27.43
2022-11-28T05:16:50.069Z,22.67
2022-11-28T05:18:12.141Z,21.80
2022-11-28T05:19:34.163Z,23.93
2022-11-28T05:20:58.975Z,24.17
2022-11-28T05:22:21.117Z,29.73
2022-11-28T05:23:44.695Z,26.40
2022-11-28T05:25:07.203Z,25.97
2022-11-28T05:26:32.200Z,25.03
2022-11-28T05:27:54.327Z,31.13
2022-11-28T05:29:16.949Z,30.00
2022-11-28T05:30:38.995Z,26.43
2022-11-28T05:32:01.211Z,25.03
2022-11-28T05:33:23.392Z,26.83
2022-11-28T05:34:45.406Z,23.10
2022-11-28T05:36:13.167Z,23.20
2022-11-28T05:37:35.938Z,25.00
2022-11-28T05:38:58.020Z,27.37
2022-11-28T05:40:20.065Z,22.80
2022-11-28T05:41:42.173Z,25.27
2022-11-28T05:43:04.317Z,25.87
2022-11-28T05:44:27.235Z,25.50
2022-11-28T05:45:49.466Z,29.60
2022-11-28T05:47:11.550Z,27.97
2022-11-28T05:48:33.752Z,27.10
2022-11-28T05:49:55.803Z,25.07
2022-11-28T05:51:18.149Z,31.47
2022-11-28T05:52:40.246Z,25.90
2022-11-28T05:54:02.374Z,30.50
2022-11-28T05:55:24.813Z,25.63
2022-11-28T05:56:46.875Z,28.37
2022-11-28T05:58:08.983Z,24.47
2022-11-28T05:59:31.113Z,26.03
2022-11-28T06:00:53.171Z,29.33
2022-11-28T06:02:15.317Z,26.73
2022-11-28T06:03:37.434Z,32.20
2022-11-28T06:05:07.286Z,26.90
2022-11-28T06:06:38.470Z,29.07
2022-11-28T06:08:00.615Z,28.10
2022-11-28T06:09:25.779Z,31.13
2022-11-28T06:10:59.425Z,25.43
2022-11-28T06:12:21.454Z,26.80
2022-11-28T06:13:44.702Z,24.20
2022-11-28T06:15:07.326Z,27.80
2022-11-28T06:16:31.539Z,30.53
2022-11-28T06:17:53.678Z,25.10
2022-11-28T06:19:15.755Z,27.43
2022-11-28T06:20:37.957Z,26.50
2022-11-28T06:22:00.098Z,29.80
2022-11-28T06:23:22.236Z,28.53
2022-11-28T06:24:44.346Z,26.93
2022-11-28T06:26:12.282Z,34.83
2022-11-28T06:27:36.011Z,24.83
2022-11-28T06:28:58.439Z,27.07
2022-11-28T06:30:20.535Z,25.43
2022-11-28T06:31:42.708Z,25.87
2022-11-28T06:33:04.795Z,25.37
2022-11-28T06:34:27.326Z,26.80
2022-11-28T06:35:49.376Z,26.20
2022-11-28T06:37:11.525Z,29.60
2022-11-28T06:38:34.104Z,26.00
2022-11-28T06:39:56.153Z,26.77
2022-11-28T06:41:19.984Z,27.37
2022-11-28T06:42:42.021Z,27.27
2022-11-28T06:44:04.179Z,27.63
2022-11-28T06:45:26.400Z,30.03
2022-11-28T06:46:48.498Z,27.37
2022-11-28T06:48:10.547Z,30.57
2022-11-28T06:49:32.614Z,24.23
2022-11-28T06:50:55.015Z,26.30
2022-11-28T06:52:17.102Z,30.60
2022-11-28T06:53:39.679Z,28.90
2022-11-28T06:55:01.791Z,28.90
2022-11-28T06:56:24.086Z,28.23
2022-11-28T06:57:46.148Z,30.80
2022-11-28T06:59:11.330Z,25.37
2022-11-28T07:00:33.718Z,31.20
2022-11-28T07:01:57.696Z,32.33
2022-11-28T07:03:19.914Z,30.70
2022-11-28T07:04:41.972Z,28.50
2022-11-28T07:06:04.944Z,27.67
2022-11-28T07:07:27.157Z,28.57
2022-11-28T07:08:50.205Z,25.70
2022-11-28T07:10:12.575Z,25.43
2022-11-28T07:11:34.682Z,22.67
2022-11-28T07:13:01.317Z,29.53
2022-11-28T07:14:25.970Z,26.53
2022-11-28T07:15:50.041Z,29.97
2022-11-28T07:17:12.117Z,32.33
2022-11-28T07:18:34.786Z,24.77
2022-11-28T07:19:56.841Z,28.40
2022-11-28T07:21:20.093Z,30.87
2022-11-28T07:22:43.640Z,26.60
2022-11-28T07:24:06.028Z,33.83
2022-11-28T07:25:28.060Z,27.40
2022-11-28T07:26:50.123Z,25.57
2022-11-28T07:28:12.252Z,28.63
2022-11-28T07:29:37.361Z,28.77
2022-11-28T07:31:10.875Z,29.30
2022-11-28T07:32:32.961Z,28.30
2022-11-28T07:33:55.061Z,30.70
2022-11-28T07:35:17.326Z,30.83
2022-11-28T07:36:39.619Z,28.93
2022-11-28T07:38:01.688Z,34.43
2022-11-28T07:39:23.814Z,37.00
2022-11-28T07:40:45.907Z,30.63
2022-11-28T07:42:08.101Z,28.33
2022-11-28T07:43:30.214Z,35.60
2022-11-28T07:44:52.295Z,34.43
2022-11-28T07:46:17.081Z,40.00
2022-11-28T07:47:39.186Z,32.37
2022-11-28T07:49:02.049Z,33.60
2022-11-28T07:50:24.119Z,35.70
2022-11-28T07:51:46.237Z,32.67
2022-11-28T07:53:08.284Z,33.77
2022-11-28T07:54:30.302Z,30.73
2022-11-28T07:55:52.364Z,41.20
2022-11-28T07:57:14.409Z,28.73
2022-11-28T07:58:36.978Z,30.63
2022-11-28T07:59:59.048Z,30.03
2022-11-28T08:01:26.353Z,28.13
2022-11-28T08:02:48.531Z,31.40
2022-11-28T08:04:10.840Z,34.37
2022-11-28T08:05:33.692Z,35.83
2022-11-28T08:06:56.921Z,31.60
2022-11-28T08:08:19.824Z,32.57
2022-11-28T08:09:42.183Z,31.70
2022-11-28T08:11:07.840Z,33.60
2022-11-28T08:12:29.948Z,33.97
2022-11-28T08:13:55.052Z,40.17
2022-11-28T08:15:20.333Z,36.90
2022-11-28T08:16:44.975Z,32.10
2022-11-28T08:18:08.001Z,33.40
2022-11-28T08:19:33.799Z,33.30
2022-11-28T08:21:08.489Z,37.53
2022-11-28T08:22:30.547Z,36.27
2022-11-28T08:23:54.565Z,33.87
2022-11-28T08:25:16.641Z,38.13
2022-11-28T08:26:38.927Z,36.10
2022-11-28T08:28:01.043Z,30.43
2022-11-28T08:29:23.136Z,41.70
2022-11-28T08:30:45.283Z,43.37
2022-11-28T08:32:07.435Z,46.03
2022-11-28T08:33:29.510Z,42.40
2022-11-28T08:34:51.555Z,43.17
2022-11-28T08:36:15.133Z,47.30
2022-11-28T08:37:37.165Z,47.43
2022-11-28T08:39:22.932Z,43.77
2022-11-28T08:40:45.844Z,46.90
2022-11-28T08:42:07.881Z,47.67
2022-11-28T08:43:30.087Z,39.17
2022-11-28T08:44:52.222Z,48.23
2022-11-28T08:46:16.891Z,47.70
2022-11-28T08:47:38.969Z,45.03
2022-11-28T08:49:04.727Z,56.03
2022-11-28T08:50:26.976Z,45.73
2022-11-28T08:51:49.038Z,44.20
2022-11-28T08:53:11.103Z,48.60
2022-11-28T08:54:33.782Z,47.30
2022-11-28T08:55:55.875Z,46.67
2022-11-28T08:57:17.913Z,45.77
2022-11-28T08:58:40.238Z,43.60
2022-11-28T09:00:02.683Z,44.17
2022-11-28T09:01:26.278Z,47.67
2022-11-28T09:02:48.348Z,44.03
2022-11-28T09:04:10.483Z,44.40
2022-11-28T09:05:32.844Z,40.03
2022-11-28T09:06:55.128Z,47.27
2022-11-28T09:08:19.335Z,41.17
2022-11-28T09:09:41.341Z,50.53
2022-11-28T09:11:05.924Z,44.20
2022-11-28T09:12:27.993Z,40.40
2022-11-28T09:13:50.884Z,42.40
2022-11-28T09:15:13.132Z,44.53
2022-11-28T09:16:35.288Z,39.47
2022-11-28T09:17:57.501Z,45.03
2022-11-28T09:19:19.589Z,39.70
2022-11-28T09:20:42.182Z,39.43
2022-11-28T09:22:04.246Z,42.93
2022-11-28T09:23:26.607Z,37.13
2022-11-28T09:24:48.725Z,44.73
2022-11-28T09:26:12.709Z,43.53
2022-11-28T09:27:35.011Z,37.60
2022-11-28T09:28:57.124Z,39.33
2022-11-28T09:30:22.356Z,35.83
2022-11-28T09:31:47.399Z,47.97
2022-11-28T09:33:09.866Z,41.73
2022-11-28T09:34:31.946Z,43.30
2022-11-28T09:35:55.474Z,39.70
2022-11-28T09:37:18.024Z,45.67
2022-11-28T09:38:40.390Z,36.90
2022-11-28T09:40:13.167Z,42.40
2022-11-28T09:41:59.805Z,42.63
2022-11-28T09:43:35.734Z,42.70
2022-11-28T09:45:00.082Z,33.73
2022-11-28T09:46:28.982Z,37.77
2022-11-28T09:47:54.870Z,38.90
2022-11-28T09:49:39.950Z,40.30
2022-11-28T09:51:13.117Z,41.83
2022-11-28T09:53:21.003Z,43.60
2022-11-28T09:55:03.641Z,38.10
2022-11-28T09:56:26.043Z,40.67
2022-11-28T09:57:50.294Z,37.90
2022-11-28T09:59:25.488Z,43.63
2022-11-28T10:01:19.471Z,43.27
2022-11-28T10:02:56.057Z,38.13
2022-11-28T10:04:40.450Z,42.10
2022-11-28T10:06:15.519Z,38.67
2022-11-28T10:07:54.619Z,39.63
2022-11-28T10:10:02.809Z,35.27
2022-11-28T10:11:42.523Z,40.23
2022-11-28T10:13:41.144Z,38.33
2022-11-28T10:15:18.844Z,33.67
2022-11-28T10:16:49.663Z,37.90
2022-11-28T10:18:19.027Z,37.13
2022-11-28T10:19:55.168Z,33.27
2022-11-28T10:21:42.084Z,37.73
2022-11-28T10:23:38.585Z,37.57
2022-11-28T10:25:04.976Z,36.90
2022-11-28T10:26:43.777Z,34.40
2022-11-28T10:28:11.639Z,36.07
2022-11-28T10:29:50.155Z,34.60
2022-11-28T10:31:19.302Z,39.87
2022-11-28T10:32:45.298Z,37.03
2022-11-28T10:34:12.097Z,39.57
2022-11-28T10:35:46.585Z,35.13
2022-11-28T10:37:20.754Z,35.20
2022-11-28T10:38:43.637Z,35.53
2022-11-28T10:40:44.419Z,38.27
2022-11-28T10:42:20.123Z,34.80
2022-11-28T10:43:53.975Z,33.67
2022-11-28T10:45:30.075Z,34.67
2022-11-28T10:47:07.321Z,33.73
2022-11-28T10:49:07.598Z,36.97
2022-11-28T10:50:32.460Z,35.53
2022-11-28T10:52:03.961Z,40.33
2022-11-28T10:53:44.624Z,34.57
2022-11-28T10:55:12.568Z,34.17
2022-11-28T10:56:49.359Z,31.93
2022-11-28T10:58:27.339Z,33.67
2022-11-28T11:00:20.379Z,35.67
2022-11-28T11:01:45.926Z,40.07
2022-11-28T11:03:15.495Z,35.90
2022-11-28T11:04:38.759Z,35.03
2022-11-28T11:06:00.913Z,35.60
2022-11-28T11:07:31.496Z,38.97
2022-11-28T11:08:53.752Z,30.50
2022-11-28T11:10:23.526Z,34.50
2022-11-28T11:11:57.117Z,33.43
2022-11-28T11:13:24.933Z,28.47
2022-11-28T11:14:47.406Z,28.60
2022-11-28T11:16:12.329Z,30.70
2022-11-28T11:17:37.818Z,30.77
2022-11-28T11:19:00.325Z,29.10
2022-11-28T11:20:31.266Z,30.60
2022-11-28T11:22:03.544Z,31.87
2022-11-28T11:23:25.590Z,28.43
2022-11-28T11:25:10.416Z,30.20
2022-11-28T11:26:39.219Z,26.47
2022-11-28T11:28:04.288Z,29.83
2022-11-28T11:29:31.457Z,33.13
2022-11-28T11:31:18.217Z,25.87
2022-11-28T11:32:40.415Z,32.10
2022-11-28T11:34:18.033Z,30.50
2022-11-28T11:35:45.923Z,26.30
2022-11-28T11:37:37.201Z,26.13
2022-11-28T11:39:09.472Z,23.00
2022-11-28T11:40:31.576Z,26.83
2022-11-28T11:42:02.680Z,26.10
2022-11-28T11:43:31.847Z,26.07
2022-11-28T11:44:54.458Z,25.83
2022-11-28T11:46:17.318Z,24.70
2022-11-28T11:47:42.461Z,21.80
2022-11-28T11:49:04.511Z,27.30
2022-11-28T11:50:29.970Z,27.70
2022-11-28T11:51:57.646Z,25.00
2022-11-28T11:53:19.720Z,24.63
2022-11-28T11:54:56.496Z,25.33
2022-11-28T11:56:18.584Z,23.00
2022-11-28T11:57:46.279Z,25.13
2022-11-28T11:59:20.005Z,26.93
2022-11-28T12:00:43.455Z,28.13
2022-11-28T12:02:32.457Z,26.87
2022-11-28T12:04:17.707Z,27.23
2022-11-28T12:06:13.811Z,23.53
2022-11-28T12:07:48.963Z,24.90
2022-11-28T12:09:48.243Z,28.40
2022-11-28T12:11:27.765Z,25.57
2022-11-28T12:12:50.535Z,24.43
2022-11-28T12:14:36.202Z,19.37
2022-11-28T12:16:35.862Z,26.57
2022-11-28T12:18:11.835Z,25.20
2022-11-28T12:19:57.311Z,24.23
2022-11-28T12:21:37.130Z,27.13
2022-11-28T12:23:29.511Z,21.63
2022-11-28T12:25:09.527Z,27.30
2022-11-28T12:26:50.114Z,23.70
2022-11-28T12:28:34.798Z,22.63
2022-11-28T12:30:15.708Z,32.67
2022-11-28T12:31:59.744Z,24.80
2022-11-28T12:33:47.478Z,23.70
2022-11-28T12:35:13.975Z,26.90
2022-11-28T12:36:57.374Z,27.20
2022-11-28T12:38:22.539Z,24.03
2022-11-28T12:39:50.413Z,28.63
2022-11-28T12:41:34.353Z,25.10
2022-11-28T12:43:21.132Z,20.47
2022-11-28T12:45:16.737Z,27.23
2022-11-28T12:46:56.631Z,22.50
2022-11-28T12:48:45.371Z,26.90
2022-11-28T12:50:21.922Z,26.63
2022-11-28T12:52:01.749Z,21.87
2022-11-28T12:53:56.094Z,22.47
2022-11-28T12:55:35.352Z,23.27
2022-11-28T12:57:12.311Z,21.90
2022-11-28T12:58:41.354Z,25.07
2022-11-28T13:00:12.954Z,19.43
2022-11-28T13:01:47.056Z,24.83
2022-11-28T13:03:23.302Z,26.97
2022-11-28T13:04:54.347Z,22.33
2022-11-28T13:06:33.990Z,21.17
2022-11-28T13:08:02.106Z,26.10
2022-11-28T13:09:30.889Z,24.50
2022-11-28T13:11:17.601Z,28.97
2022-11-28T13:12:54.853Z,20.90
2022-11-28T13:14:41.024Z,23.70
2022-11-28T13:16:26.983Z,26.00
2022-11-28T13:18:03.977Z,25.53
2022-11-28T13:19:34.682Z,29.33
2022-11-28T13:21:01.620Z,26.00
2022-11-28T13:22:24.473Z,27.67
2022-11-28T13:23:52.796Z,23.30
2022-11-28T13:25:46.925Z,22.87
2022-11-28T13:27:36.313Z,23.93
2022-11-28T13:29:13.494Z,22.40
2022-11-28T13:30:46.358Z,23.70
2022-11-28T13:32:32.722Z,23.30
2022-11-28T13:33:56.643Z,24.70
2022-11-28T13:35:19.946Z,23.70
2022-11-28T13:39:09.610Z,24.90
2022-11-28T13:40:48.097Z,24.30
2022-11-28T13:44:17.426Z,25.20
2022-11-28T13:45:45.105Z,18.47
2022-11-28T13:47:15.427Z,21.97
2022-11-28T13:49:05.944Z,19.00
2022-11-28T13:50:25.329Z,19.47
2022-11-28T13:51:47.988Z,16.87
2022-11-28T13:53:20.831Z,22.07
2022-11-28T13:54:44.700Z,18.67
2022-11-28T13:56:07.244Z,17.10
2022-11-28T13:57:47.496Z,19.90
2022-11-28T13:59:19.240Z,19.63
2022-11-28T14:00:41.535Z,21.33
2022-11-28T14:02:15.710Z,19.13
2022-11-28T14:04:02.559Z,23.53
2022-11-28T14:05:31.813Z,18.17
2022-11-28T14:07:01.730Z,16.93
2022-11-28T14:08:33.349Z,14.30
2022-11-28T14:10:12.840Z,15.90
2022-11-28T14:11:40.863Z,16.90
2022-11-28T14:13:17.585Z,16.73
2022-11-28T14:14:57.495Z,15.93
2022-11-28T14:16:25.764Z,16.90
2022-11-28T14:18:19.166Z,16.70
2022-11-28T14:19:59.033Z,17.77
2022-11-28T14:21:44.587Z,14.27
2022-11-28T14:23:27.031Z,15.73
2022-11-28T14:24:57.670Z,17.33
2022-11-28T14:26:39.395Z,14.50
2022-11-28T14:28:07.703Z,20.10
2022-11-28T14:29:41.398Z,17.43
2022-11-28T14:31:15.353Z,17.80
2022-11-28T14:32:41.883Z,14.47
2022-11-28T14:34:31.051Z,15.50
2022-11-28T14:35:53.167Z,17.13
2022-11-28T14:37:27.276Z,16.83
2022-11-28T14:39:10.659Z,15.40
2022-11-28T14:41:12.756Z,15.60
2022-11-28T14:44:47.668Z,12.37
2022-11-28T14:46:16.027Z,13.30
2022-11-28T14:47:43.031Z,16.43
2022-11-28T14:49:16.881Z,15.40
2022-11-28T14:50:38.968Z,14.97
2022-11-28T14:54:02.090Z,13.40
2022-11-28T14:55:25.998Z,16.07
2022-11-28T14:56:52.912Z,11.07
2022-11-28T14:58:17.518Z,12.70
2022-11-28T14:59:40.116Z,14.20
2022-11-28T15:01:12.011Z,13.80
2022-11-28T15:02:56.261Z,13.23
2022-11-28T15:04:46.362Z,14.67
2022-11-28T15:06:18.433Z,16.97
2022-11-28T15:08:18.018Z,17.60
2022-11-28T15:09:56.278Z,19.03
2022-11-28T15:11:32.952Z,16.33
2022-11-28T15:12:54.927Z,17.60
2022-11-28T15:14:24.191Z,13.43
2022-11-28T15:15:50.889Z,16.80
2022-11-28T15:17:14.481Z,12.87
2022-11-28T15:18:38.486Z,15.60
2022-11-28T15:20:14.195Z,15.43
2022-11-28T15:21:51.746Z,15.53
2022-11-28T15:23:30.997Z,13.40
2022-11-28T15:24:53.108Z,15.23
2022-11-28T15:26:27.774Z,16.20
2022-11-28T15:27:50.008Z,17.20
2022-11-28T15:29:18.157Z,15.63
2022-11-28T15:30:46.302Z,13.07
2022-11-28T15:32:13.215Z,14.80
2022-11-28T15:33:35.353Z,14.27
2022-11-28T15:35:01.031Z,18.30
2022-11-28T15:36:28.309Z,12.30
2022-11-28T15:37:59.376Z,12.47
2022-11-28T15:39:31.441Z,14.30
2022-11-28T15:40:54.722Z,11.10
2022-11-28T15:42:30.838Z,17.23
2022-11-28T15:43:54.212Z,11.80
2022-11-28T15:45:32.228Z,11.30
2022-11-28T15:46:55.093Z,11.13
2022-11-28T15:48:37.545Z,12.00
2022-11-28T15:50:14.440Z,10.37
2022-11-28T15:51:36.569Z,13.20
2022-11-28T15:53:16.248Z,10.60
2022-11-28T15:54:41.580Z,12.70
2022-11-28T15:56:11.754Z,15.03
2022-11-28T15:57:33.799Z,14.73
2022-11-28T15:58:56.760Z,14.50
2022-11-28T16:00:21.805Z,16.97
2022-11-28T16:01:44.302Z,16.60
2022-11-28T16:03:06.866Z,17.60
2022-11-28T16:04:30.401Z,14.13
2022-11-28T16:05:55.587Z,16.20
2022-11-28T16:07:17.783Z,21.03
2022-11-28T16:08:47.277Z,15.40
2022-11-28T16:10:32.472Z,19.47
2022-11-28T16:11:54.998Z,15.93
2022-11-28T16:13:21.216Z,14.67
2022-11-28T16:14:45.505Z,12.50
2022-11-28T16:16:21.847Z,15.57
2022-11-28T16:17:44.181Z,19.50
2022-11-28T16:19:20.782Z,18.07
2022-11-28T16:20:43.521Z,17.43
2022-11-28T16:22:11.246Z,20.70
2022-11-28T16:23:35.866Z,15.80
2022-11-28T16:24:59.996Z,28.60
2022-11-28T16:26:31.888Z,19.87
2022-11-28T16:27:57.265Z,19.20
2022-11-28T16:29:22.282Z,19.83
2022-11-28T16:30:48.345Z,17.23
2022-11-28T16:32:21.828Z,16.57
2022-11-28T16:33:45.102Z,19.90
2022-11-28T16:35:12.317Z,18.50
2022-11-28T16:36:37.391Z,20.27
2022-11-28T16:38:15.280Z,20.03
2022-11-28T16:39:37.397Z,18.23
2022-11-28T16:41:02.897Z,22.10
2022-11-28T16:42:25.016Z,19.93
2022-11-28T16:43:52.222Z,21.83
2022-11-28T16:46:39.098Z,17.43
2022-11-28T16:48:08.865Z,31.73
2022-11-28T16:49:43.453Z,17.80
2022-11-28T16:51:12.141Z,19.03
2022-11-28T16:52:53.749Z,21.30
2022-11-28T16:54:33.786Z,15.93
2022-11-28T16:55:55.923Z,23.23
2022-11-28T16:57:20.196Z,20.87
2022-11-28T16:58:42.318Z,20.40
2022-11-28T17:00:04.795Z,16.30
2022-11-28T17:01:28.297Z,19.63
2022-11-28T17:02:53.491Z,22.43
2022-11-28T17:04:22.653Z,20.23
2022-11-28T17:05:44.672Z,19.20
2022-11-28T17:07:14.002Z,21.87
2022-11-28T17:08:36.172Z,21.55
2022-11-28T17:09:58.382Z,19.40
2022-11-28T17:11:23.929Z,18.17
2022-11-28T17:12:46.385Z,14.93
2022-11-28T17:14:13.665Z,23.57
2022-11-28T17:15:36.040Z,22.33
2022-11-28T17:16:58.169Z,21.67
2022-11-28T17:18:20.258Z,18.47
2022-11-28T17:19:43.295Z,15.20
2022-11-28T17:21:05.728Z,23.83
2022-11-28T17:22:47.737Z,18.83
2022-11-28T17:24:21.875Z,19.30
2022-11-28T17:25:43.885Z,22.33
2022-11-28T17:27:08.936Z,18.40
2022-11-28T17:28:30.992Z,21.50
2022-11-28T17:29:53.149Z,19.67
2022-11-28T17:31:15.402Z,20.30
2022-11-28T17:32:37.510Z,20.67
2022-11-28T17:33:59.612Z,20.43
2022-11-28T17:35:24.739Z,16.23
2022-11-28T17:36:47.751Z,20.03
2022-11-28T17:38:09.785Z,23.00
2022-11-28T17:39:31.967Z,25.47
2022-11-28T17:40:54.167Z,26.10
2022-11-28T17:42:16.266Z,24.53
2022-11-28T17:43:39.407Z,29.20
2022-11-28T17:45:01.579Z,24.10
2022-11-28T17:46:23.630Z,21.93
2022-11-28T17:47:45.730Z,24.30
2022-11-28T17:49:07.783Z,27.27
2022-11-28T17:50:29.816Z,23.97
2022-11-28T17:51:52.789Z,23.37
2022-11-28T17:53:17.829Z,27.93
2022-11-28T17:54:39.992Z,26.63
2022-11-28T17:56:02.220Z,25.93
2022-11-28T17:57:24.289Z,29.07
2022-11-28T17:58:46.535Z,25.27
2022-11-28T18:00:10.988Z,27.23
2022-11-28T18:01:33.074Z,24.10
2022-11-28T18:02:55.364Z,26.47
2022-11-28T18:04:17.542Z,28.83
2022-11-28T18:05:45.660Z,30.67
2022-11-28T18:07:07.764Z,29.43
2022-11-28T18:08:29.818Z,27.47
2022-11-28T18:09:51.944Z,30.87
2022-11-28T18:11:15.182Z,26.13
2022-11-28T18:12:38.196Z,28.50
2022-11-28T18:14:00.203Z,36.07
2022-11-28T18:15:22.288Z,32.07
2022-11-28T18:16:44.400Z,29.40
2022-11-28T18:18:06.876Z,32.20
2022-11-28T18:19:28.975Z,30.57
2022-11-28T18:20:51.182Z,32.27
2022-11-28T18:22:13.238Z,34.03
2022-11-28T18:23:39.033Z,27.23
2022-11-28T18:25:01.176Z,36.70
2022-11-28T18:26:25.073Z,35.07
2022-11-28T18:27:47.163Z,32.60
2022-11-28T18:29:09.780Z,32.70
2022-11-28T18:30:31.831Z,36.37
2022-11-28T18:31:53.924Z,31.47
2022-11-28T18:33:17.379Z,34.03
2022-11-28T18:34:39.518Z,31.93
2022-11-28T18:36:23.460Z,40.43
2022-11-28T18:37:45.622Z,36.10
2022-11-28T18:39:11.586Z,31.30
2022-11-28T18:40:36.202Z,35.17
2022-11-28T18:41:59.991Z,37.07
2022-11-28T18:43:22.064Z,33.90
2022-11-28T18:44:44.182Z,33.77
2022-11-28T18:46:08.513Z,33.77
2022-11-28T18:47:30.656Z,37.53
2022-11-28T18:48:53.284Z,32.47
2022-11-28T18:50:15.443Z,37.73
2022-11-28T18:51:37.605Z,37.27
2022-11-28T18:53:00.701Z,38.00
2022-11-28T18:54:23.105Z,34.10
2022-11-28T18:55:45.173Z,40.93
2022-11-28T18:57:08.052Z,36.67
2022-11-28T18:58:33.578Z,37.63
2022-11-28T18:59:56.569Z,34.20
2022-11-28T19:01:20.862Z,34.40
2022-11-28T19:02:43.187Z,39.90
2022-11-28T19:04:11.999Z,36.47
2022-11-28T19:05:39.150Z,33.97
2022-11-28T19:07:02.459Z,33.40
2022-11-28T19:08:24.539Z,35.60